createdAt,value
2023-11-04T00:00:56.051Z,6.74
2023-11-04T00:02:07.863Z,6.74
2023-11-04T00:03:11.652Z,6.74
2023-11-04T00:04:13.777Z,6.75
2023-11-04T00:05:16.910Z,6.76
2023-11-04T00:06:19.955Z,6.75
2023-11-04T00:07:23.297Z,6.75
2023-11-04T00:08:25.142Z,6.74
2023-11-04T00:09:37.884Z,6.73
2023-11-04T00:10:50.902Z,6.71
2023-11-04T00:11:53.716Z,6.69
2023-11-04T00:12:55.655Z,6.68
2023-11-04T00:13:58.496Z,6.67
2023-11-04T00:15:00.335Z,6.67
2023-11-04T00:16:07.161Z,6.66
2023-11-04T00:17:10.399Z,6.65
2023-11-04T00:18:13.626Z,6.64
2023-11-04T00:19:15.715Z,6.62
2023-11-04T00:20:18.628Z,6.62
2023-11-04T00:21:20.542Z,6.61
2023-11-04T00:22:22.407Z,6.60
2023-11-04T00:23:25.230Z,6.60
2023-11-04T00:24:27.106Z,6.58
2023-11-04T00:25:29.914Z,6.58
2023-11-04T00:26:31.806Z,6.56
2023-11-04T00:27:35.158Z,6.55
2023-11-04T00:28:37.259Z,6.53
2023-11-04T00:29:40.124Z,6.51
2023-11-04T00:30:42.131Z,6.50
2023-11-04T00:31:44.964Z,6.49
2023-11-04T00:32:49.068Z,6.47
2023-11-04T00:33:51.918Z,6.46
2023-11-04T00:34:53.820Z,6.43
2023-11-04T00:35:55.881Z,6.40
2023-11-04T00:36:58.788Z,6.38
2023-11-04T00:38:00.619Z,6.35
2023-11-04T00:39:03.672Z,6.31
2023-11-04T00:40:07.562Z,6.32
2023-11-04T00:41:11.151Z,6.31
2023-11-04T00:42:13.086Z,6.30
2023-11-04T00:43:15.874Z,6.30
2023-11-04T00:44:17.743Z,6.31
2023-11-04T00:45:20.694Z,6.34
2023-11-04T00:46:22.728Z,6.35
2023-11-04T00:47:24.856Z,6.37
2023-11-04T00:48:29.073Z,6.39
2023-11-04T00:49:31.002Z,6.44
2023-11-04T00:50:33.857Z,6.45
2023-11-04T00:51:37.488Z,6.48
2023-11-04T00:52:40.652Z,6.50
2023-11-04T00:53:42.514Z,6.51
2023-11-04T00:54:45.399Z,6.51
2023-11-04T00:55:47.958Z,6.54
2023-11-04T00:56:51.029Z,6.54
2023-11-04T00:57:52.946Z,6.55
2023-11-04T00:58:55.767Z,6.55
2023-11-04T00:59:57.654Z,6.55
2023-11-04T01:01:00.498Z,6.57
2023-11-04T01:02:02.784Z,6.56
2023-11-04T01:03:05.611Z,6.56
2023-11-04T01:04:08.916Z,6.56
2023-11-04T01:05:12.342Z,6.56
2023-11-04T01:06:15.207Z,6.56
2023-11-04T01:07:17.183Z,6.55
2023-11-04T01:08:20.016Z,6.55
2023-11-04T01:09:22.534Z,6.54
2023-11-04T01:10:25.460Z,6.56
2023-11-04T01:11:27.417Z,6.55
2023-11-04T01:12:30.326Z,6.53
2023-11-04T01:13:32.251Z,6.53
2023-11-04T01:14:36.487Z,6.51
2023-11-04T01:15:38.474Z,6.49
2023-11-04T01:16:41.462Z,6.48
2023-11-04T01:17:43.408Z,6.47
2023-11-04T01:18:46.713Z,6.45
2023-11-04T01:19:50.046Z,6.45
2023-11-04T01:20:52.912Z,6.44
2023-11-04T01:21:54.761Z,6.44
2023-11-04T01:22:57.675Z,6.44
2023-11-04T01:23:59.490Z,6.45
2023-11-04T01:25:02.286Z,6.45
2023-11-04T01:26:04.794Z,6.48
2023-11-04T01:27:10.206Z,6.47
2023-11-04T01:28:12.171Z,6.48
2023-11-04T01:29:15.046Z,6.48
2023-11-04T01:30:17.078Z,6.48
2023-11-04T01:31:19.994Z,6.49
2023-11-04T01:32:21.835Z,6.50
2023-11-04T01:33:27.044Z,6.51
2023-11-04T01:34:29.106Z,6.52
2023-11-04T01:35:33.491Z,6.52
2023-11-04T01:36:35.740Z,6.51
2023-11-04T01:37:38.526Z,6.52
2023-11-04T01:38:40.418Z,6.51
2023-11-04T01:39:43.241Z,6.50
2023-11-04T01:40:49.090Z,6.49
2023-11-04T01:41:51.945Z,6.46
2023-11-04T01:42:54.211Z,6.44
2023-11-04T01:43:57.055Z,6.41
2023-11-04T01:44:58.888Z,6.38
2023-11-04T01:46:19.444Z,6.35
2023-11-04T01:47:21.353Z,6.28
2023-11-04T01:48:24.274Z,6.26
2023-11-04T01:49:26.794Z,6.22
2023-11-04T01:50:29.600Z,6.19
2023-11-04T01:51:33.069Z,6.17
2023-11-04T01:52:38.755Z,6.15
2023-11-04T01:53:41.821Z,6.15
2023-11-04T01:54:44.807Z,6.14
2023-11-04T01:55:46.878Z,6.15
2023-11-04T01:56:50.195Z,6.15
2023-11-04T01:57:52.330Z,6.16
2023-11-04T01:58:56.391Z,6.14
2023-11-04T01:59:58.610Z,6.13
2023-11-04T02:01:02.032Z,6.12
2023-11-04T02:02:04.842Z,6.09
2023-11-04T02:03:07.740Z,6.05
2023-11-04T02:04:09.739Z,6.02
2023-11-04T02:05:13.108Z,5.99
2023-11-04T02:06:15.840Z,5.95
2023-11-04T02:07:20.028Z,5.93
2023-11-04T02:08:21.936Z,5.91
2023-11-04T02:09:24.769Z,5.89
2023-11-04T02:10:26.810Z,5.87
2023-11-04T02:11:31.714Z,5.85
2023-11-04T02:12:33.696Z,5.83
2023-11-04T02:13:36.617Z,5.79
2023-11-04T02:14:39.692Z,5.77
2023-11-04T02:15:42.622Z,5.74
2023-11-04T02:16:44.519Z,5.73
2023-11-04T02:17:47.386Z,5.72
2023-11-04T02:18:49.327Z,5.73
2023-11-04T02:19:53.196Z,5.75
2023-11-04T02:20:58.679Z,5.75
2023-11-04T02:22:01.491Z,5.76
2023-11-04T02:23:03.656Z,5.74
2023-11-04T02:24:07.191Z,5.72
2023-11-04T02:25:09.139Z,5.72
2023-11-04T02:26:12.039Z,5.72
2023-11-04T02:27:13.941Z,5.70
2023-11-04T02:28:17.106Z,5.69
2023-11-04T02:29:19.016Z,5.69
2023-11-04T02:30:22.148Z,5.69
2023-11-04T02:31:24.257Z,5.67
2023-11-04T02:32:27.149Z,5.67
2023-11-04T02:33:29.017Z,5.66
2023-11-04T02:34:32.009Z,5.67
2023-11-04T02:35:33.944Z,5.67
2023-11-04T02:36:38.142Z,5.66
2023-11-04T02:37:39.958Z,5.69
2023-11-04T02:38:42.806Z,5.70
2023-11-04T02:39:45.431Z,5.74
2023-11-04T02:40:48.515Z,5.79
2023-11-04T02:42:19.471Z,5.83
2023-11-04T02:43:22.439Z,5.89
2023-11-04T02:44:24.373Z,5.94
2023-11-04T02:45:27.275Z,5.99
2023-11-04T02:46:29.160Z,6.05
2023-11-04T02:47:32.194Z,6.10
2023-11-04T02:48:34.417Z,6.14
2023-11-04T02:49:37.406Z,6.18
2023-11-04T02:50:39.285Z,6.22
2023-11-04T02:51:43.466Z,6.27
2023-11-04T02:52:45.358Z,6.31
2023-11-04T02:53:48.243Z,6.36
2023-11-04T02:54:50.425Z,6.39
2023-11-04T02:55:53.280Z,6.43
2023-11-04T02:56:55.143Z,6.45
2023-11-04T02:57:58.164Z,6.48
2023-11-04T02:59:00.170Z,6.51
2023-11-04T03:00:02.123Z,6.54
2023-11-04T03:01:05.443Z,6.57
2023-11-04T03:02:07.324Z,6.58
2023-11-04T03:03:10.890Z,6.61
2023-11-04T03:04:14.143Z,6.63
2023-11-04T03:05:27.485Z,6.66
2023-11-04T03:06:34.582Z,6.68
2023-11-04T03:07:38.856Z,6.68
2023-11-04T03:08:40.801Z,6.71
2023-11-04T03:09:43.860Z,6.72
2023-11-04T03:10:45.821Z,6.74
2023-11-04T03:11:48.899Z,6.77
2023-11-04T03:12:50.962Z,6.77
2023-11-04T03:13:54.422Z,6.79
2023-11-04T03:14:56.754Z,6.81
2023-11-04T03:15:59.697Z,6.82
2023-11-04T03:17:01.642Z,6.84
2023-11-04T03:18:04.632Z,6.85
2023-11-04T03:19:06.674Z,6.88
2023-11-04T03:20:10.924Z,6.89
2023-11-04T03:21:13.141Z,6.90
2023-11-04T03:22:16.101Z,6.91
2023-11-04T03:23:19.492Z,6.91
2023-11-04T03:24:21.561Z,6.93
2023-11-04T03:25:24.433Z,6.95
2023-11-04T03:26:26.338Z,6.95
2023-11-04T03:27:29.423Z,6.96
2023-11-04T03:28:31.372Z,6.98
2023-11-04T03:29:33.412Z,6.99
2023-11-04T03:30:37.018Z,7.00
2023-11-04T03:31:39.098Z,7.00
2023-11-04T03:32:42.457Z,7.01
2023-11-04T03:33:45.191Z,7.01
2023-11-04T03:34:48.205Z,7.02
2023-11-04T03:35:50.629Z,7.03
2023-11-04T03:36:52.621Z,7.03
2023-11-04T03:37:55.647Z,7.05
2023-11-04T03:38:59.740Z,7.05
2023-11-04T03:40:01.641Z,7.04
2023-11-04T03:41:04.980Z,7.05
2023-11-04T03:42:08.404Z,7.06
2023-11-04T03:43:11.298Z,7.08
2023-11-04T03:44:13.382Z,7.08
2023-11-04T03:45:15.821Z,7.10
2023-11-04T03:46:20.167Z,7.12
2023-11-04T03:47:22.221Z,7.12
2023-11-04T03:48:25.405Z,7.13
2023-11-04T03:49:27.528Z,7.13
2023-11-04T03:50:30.387Z,7.14
2023-11-04T03:51:32.249Z,7.16
2023-11-04T03:52:35.093Z,7.16
2023-11-04T03:53:37.931Z,7.16
2023-11-04T03:54:42.325Z,7.18
2023-11-04T03:55:44.308Z,7.17
2023-11-04T03:56:46.159Z,7.18
2023-11-04T03:57:49.157Z,7.20
2023-11-04T03:58:51.288Z,7.20
2023-11-04T03:59:54.111Z,7.20
2023-11-04T04:00:56.096Z,7.21
2023-11-04T04:01:58.927Z,7.22
2023-11-04T04:03:01.575Z,7.22
2023-11-04T04:04:03.583Z,7.23
2023-11-04T04:05:07.053Z,7.22
2023-11-04T04:06:09.307Z,7.23
2023-11-04T04:07:12.358Z,7.24
2023-11-04T04:08:14.396Z,7.23
2023-11-04T04:09:17.220Z,7.24
2023-11-04T04:10:20.444Z,7.24
2023-11-04T04:11:24.168Z,7.24
2023-11-04T04:12:26.270Z,7.24
2023-11-04T04:13:29.104Z,7.25
2023-11-04T04:14:30.971Z,7.24
2023-11-04T04:15:33.808Z,7.25
2023-11-04T04:16:36.522Z,7.26
2023-11-04T04:17:38.539Z,7.27
2023-11-04T04:18:41.621Z,7.26
2023-11-04T04:19:43.729Z,7.26
2023-11-04T04:20:46.085Z,7.28
2023-11-04T04:21:49.131Z,7.28
2023-11-04T04:22:51.136Z,7.29
2023-11-04T04:23:54.207Z,7.29
2023-11-04T04:24:56.197Z,7.29
2023-11-04T04:26:00.780Z,7.27
2023-11-04T04:27:02.656Z,7.28
2023-11-04T04:28:05.882Z,7.26
2023-11-04T04:29:08.877Z,7.25
2023-11-04T04:30:12.201Z,7.24
2023-11-04T04:31:15.392Z,7.23
2023-11-04T04:32:18.254Z,7.22
2023-11-04T04:33:20.442Z,7.21
2023-11-04T04:34:23.814Z,7.20
2023-11-04T04:35:25.633Z,7.19
2023-11-04T04:36:28.537Z,7.17
2023-11-04T04:37:30.483Z,7.15
2023-11-04T04:38:32.310Z,7.12
2023-11-04T04:39:35.343Z,7.07
2023-11-04T04:40:38.947Z,7.02
2023-11-04T04:41:43.284Z,6.99
2023-11-04T04:42:45.166Z,6.96
2023-11-04T04:43:48.055Z,6.92
2023-11-04T04:44:49.972Z,6.92
2023-11-04T04:45:51.843Z,6.92
2023-11-04T04:46:56.869Z,6.93
2023-11-04T04:47:59.182Z,6.91
2023-11-04T04:49:02.047Z,6.92
2023-11-04T04:50:05.752Z,6.93
2023-11-04T04:51:08.615Z,6.93
2023-11-04T04:52:11.417Z,6.93
2023-11-04T04:53:16.107Z,6.93
2023-11-04T04:54:18.923Z,6.94
2023-11-04T04:55:21.653Z,6.94
2023-11-04T04:56:25.177Z,6.93
2023-11-04T04:57:28.393Z,6.92
2023-11-04T04:58:31.242Z,6.91
2023-11-04T04:59:33.640Z,6.90
2023-11-04T05:00:36.467Z,6.89
2023-11-04T05:01:38.993Z,6.88
2023-11-04T05:02:41.889Z,6.86
2023-11-04T05:03:43.953Z,6.86
2023-11-04T05:04:47.042Z,6.85
2023-11-04T05:05:48.949Z,6.82
2023-11-04T05:06:51.906Z,6.79
2023-11-04T05:07:53.795Z,6.77
2023-11-04T05:08:56.903Z,6.74
2023-11-04T05:09:58.854Z,6.69
2023-11-04T05:11:01.827Z,6.64
2023-11-04T05:12:04.043Z,6.60
2023-11-04T05:13:08.197Z,6.55
2023-11-04T05:14:10.089Z,6.52
2023-11-04T05:15:13.573Z,6.48
2023-11-04T05:16:15.465Z,6.44
2023-11-04T05:17:18.283Z,6.38
2023-11-04T05:18:20.180Z,6.34
2023-11-04T05:19:23.167Z,6.29
2023-11-04T05:20:25.051Z,6.25
2023-11-04T05:21:27.972Z,6.22
2023-11-04T05:22:29.782Z,6.18
2023-11-04T05:23:33.735Z,6.15
2023-11-04T05:24:35.855Z,6.12
2023-11-04T05:25:38.807Z,6.09
2023-11-04T05:26:40.978Z,6.04
2023-11-04T05:27:42.886Z,6.02
2023-11-04T05:28:47.100Z,5.96
2023-11-04T05:29:48.938Z,5.91
2023-11-04T05:30:51.801Z,5.86
2023-11-04T05:31:53.642Z,5.82
2023-11-04T05:32:57.564Z,5.77
2023-11-04T05:34:00.606Z,5.72
2023-11-04T05:35:03.174Z,5.69
2023-11-04T05:36:07.037Z,5.65
2023-11-04T05:37:08.929Z,5.62
2023-11-04T05:38:12.143Z,5.58
2023-11-04T05:39:13.972Z,5.54
2023-11-04T05:40:17.084Z,5.52
2023-11-04T05:41:19.244Z,5.51
2023-11-04T05:42:24.599Z,5.50
2023-11-04T05:43:26.896Z,5.48
2023-11-04T05:44:31.051Z,5.47
2023-11-04T05:45:32.961Z,5.48
2023-11-04T05:46:36.450Z,5.48
2023-11-04T05:47:38.337Z,5.47
2023-11-04T05:48:41.233Z,5.48
2023-11-04T05:49:43.148Z,5.47
2023-11-04T05:50:45.259Z,5.47
2023-11-04T05:51:48.117Z,5.49
2023-11-04T05:52:51.064Z,5.49
2023-11-04T05:53:54.075Z,5.48
2023-11-04T05:54:55.935Z,5.48
2023-11-04T05:55:58.863Z,5.48
2023-11-04T05:57:00.670Z,5.48
2023-11-04T05:58:03.467Z,5.48
2023-11-04T05:59:05.529Z,5.44
2023-11-04T06:00:12.703Z,5.43
2023-11-04T06:01:14.809Z,5.42
2023-11-04T06:02:17.664Z,5.43
2023-11-04T06:03:19.502Z,5.42
2023-11-04T06:04:22.426Z,5.43
2023-11-04T06:05:24.968Z,5.44
2023-11-04T06:06:27.896Z,5.46
2023-11-04T06:07:30.353Z,5.48
2023-11-04T06:08:36.950Z,5.53
2023-11-04T06:09:39.817Z,5.57
2023-11-04T06:10:41.676Z,5.62
2023-11-04T06:11:44.826Z,5.69
2023-11-04T06:12:46.682Z,5.74
2023-11-04T06:13:49.500Z,5.75
2023-11-04T06:14:51.327Z,5.76
2023-11-04T06:15:55.517Z,5.75
2023-11-04T06:16:57.510Z,5.76
2023-11-04T06:18:00.714Z,5.75
2023-11-04T06:19:02.757Z,5.75
2023-11-04T06:20:07.260Z,5.74
2023-11-04T06:21:09.157Z,5.75
2023-11-04T06:22:12.548Z,5.75
2023-11-04T06:23:14.381Z,5.73
2023-11-04T06:24:17.397Z,5.73
2023-11-04T06:25:19.737Z,5.72
2023-11-04T06:26:23.247Z,5.71
2023-11-04T06:27:25.218Z,5.70
2023-11-04T06:28:29.378Z,5.70
2023-11-04T06:29:31.242Z,5.70
2023-11-04T06:30:34.864Z,5.70
2023-11-04T06:31:38.045Z,5.71
2023-11-04T06:32:41.090Z,5.69
2023-11-04T06:33:42.980Z,5.69
2023-11-04T06:34:45.850Z,5.71
2023-11-04T06:35:47.666Z,5.69
2023-11-04T06:36:52.423Z,5.70
2023-11-04T06:37:54.270Z,5.68
2023-11-04T06:38:56.068Z,5.69
2023-11-04T06:39:59.061Z,5.67
2023-11-04T06:41:01.294Z,5.65
2023-11-04T06:42:04.188Z,5.63
2023-11-04T06:43:06.152Z,5.62
2023-11-04T06:44:09.032Z,5.63
2023-11-04T06:45:11.258Z,5.61
2023-11-04T06:46:14.184Z,5.62
2023-11-04T06:47:17.621Z,5.62
2023-11-04T06:48:20.548Z,5.62
2023-11-04T06:49:23.455Z,5.63
2023-11-04T06:50:26.274Z,5.63
2023-11-04T06:51:28.202Z,5.63
2023-11-04T06:52:31.255Z,5.63
2023-11-04T06:53:33.184Z,5.63
2023-11-04T06:54:34.996Z,5.63
2023-11-04T06:55:37.881Z,5.67
2023-11-04T06:56:39.711Z,5.70
2023-11-04T06:57:42.527Z,5.72
2023-11-04T06:58:44.441Z,5.75
2023-11-04T06:59:47.263Z,5.76
2023-11-04T07:00:49.892Z,5.79
2023-11-04T07:01:51.865Z,5.92
2023-11-04T07:02:56.105Z,6.18
2023-11-04T07:03:58.147Z,6.37
2023-11-04T07:05:01.176Z,6.44
2023-11-04T07:06:03.271Z,6.46
2023-11-04T07:07:06.316Z,6.46
2023-11-04T07:08:08.222Z,6.46
2023-11-04T07:09:11.702Z,6.47
2023-11-04T07:10:13.597Z,6.49
2023-11-04T07:11:17.723Z,6.51
2023-11-04T07:12:19.718Z,6.56
2023-11-04T07:13:23.024Z,6.61
2023-11-04T07:14:25.437Z,6.65
2023-11-04T07:15:28.298Z,6.66
2023-11-04T07:16:30.369Z,6.68
2023-11-04T07:17:33.276Z,6.69
2023-11-04T07:18:37.107Z,6.70
2023-11-04T07:19:40.196Z,6.68
2023-11-04T07:20:42.347Z,6.67
2023-11-04T07:21:46.896Z,6.67
2023-11-04T07:22:48.786Z,6.65
2023-11-04T07:23:51.608Z,6.64
2023-11-04T07:24:53.551Z,6.62
2023-11-04T07:25:56.454Z,6.60
2023-11-04T07:26:58.332Z,6.58
2023-11-04T07:28:01.174Z,6.58
2023-11-04T07:29:03.178Z,6.57
2023-11-04T07:30:05.497Z,6.56
2023-11-04T07:31:08.371Z,6.57
2023-11-04T07:32:11.406Z,6.56
2023-11-04T07:33:20.667Z,6.56
2023-11-04T07:34:23.982Z,6.56
2023-11-04T07:35:26.851Z,6.57
2023-11-04T07:36:28.759Z,6.57
2023-11-04T07:37:31.675Z,6.58
2023-11-04T07:38:34.058Z,6.60
2023-11-04T07:39:40.238Z,6.63
2023-11-04T07:40:43.619Z,6.66
2023-11-04T07:41:46.396Z,6.70
2023-11-04T07:42:48.319Z,6.73
2023-11-04T07:44:03.457Z,6.79
2023-11-04T07:45:06.468Z,6.84
2023-11-04T07:46:09.428Z,6.90
2023-11-04T07:47:11.250Z,6.92
2023-11-04T07:48:14.317Z,6.93
2023-11-04T07:49:16.240Z,6.94
2023-11-04T07:50:20.623Z,6.95
2023-11-04T07:51:23.664Z,6.96
2023-11-04T07:52:26.602Z,6.97
2023-11-04T07:53:28.698Z,6.99
2023-11-04T07:54:31.484Z,6.99
2023-11-04T07:55:33.386Z,6.99
2023-11-04T07:56:36.179Z,7.02
2023-11-04T07:57:38.422Z,7.05
2023-11-04T07:58:40.364Z,7.09
2023-11-04T07:59:43.194Z,7.13
2023-11-04T08:00:45.094Z,7.20
2023-11-04T08:01:47.996Z,7.24
2023-11-04T08:02:50.304Z,7.27
2023-11-04T08:03:53.217Z,7.28
2023-11-04T08:04:55.139Z,7.27
2023-11-04T08:05:59.977Z,7.25
2023-11-04T08:07:01.854Z,7.24
2023-11-04T08:08:07.636Z,7.22
2023-11-04T08:09:10.019Z,7.20
2023-11-04T08:10:22.012Z,7.19
2023-11-04T08:11:23.900Z,7.21
2023-11-04T08:12:27.051Z,7.21
2023-11-04T08:13:28.889Z,7.23
2023-11-04T08:14:31.712Z,7.26
2023-11-04T08:15:33.543Z,7.30
2023-11-04T08:16:36.345Z,7.37
2023-11-04T08:17:38.366Z,7.42
2023-11-04T08:18:42.053Z,7.47
2023-11-04T08:19:44.017Z,7.50
2023-11-04T08:20:49.581Z,7.54
2023-11-04T08:21:52.999Z,7.57
2023-11-04T08:22:57.501Z,7.59
2023-11-04T08:23:59.807Z,7.61
2023-11-04T08:25:02.693Z,7.65
2023-11-04T08:26:05.092Z,7.67
2023-11-04T08:27:07.900Z,7.70
2023-11-04T08:28:10.131Z,7.73
2023-11-04T08:29:13.001Z,7.75
2023-11-04T08:30:15.514Z,7.77
2023-11-04T08:31:18.692Z,7.77
2023-11-04T08:32:20.600Z,7.77
2023-11-04T08:33:23.998Z,7.81
2023-11-04T08:34:26.241Z,7.84
2023-11-04T08:35:29.224Z,7.87
2023-11-04T08:36:31.385Z,7.91
2023-11-04T08:37:36.379Z,7.96
2023-11-04T08:38:38.276Z,8.02
2023-11-04T08:39:41.100Z,8.07
2023-11-04T08:40:43.135Z,8.11
2023-11-04T08:41:46.463Z,8.13
2023-11-04T08:42:48.336Z,8.16
2023-11-04T08:43:52.559Z,8.20
2023-11-04T08:44:54.778Z,8.24
2023-11-04T08:45:57.682Z,8.29
2023-11-04T08:46:59.507Z,8.36
2023-11-04T08:48:02.430Z,8.44
2023-11-04T08:49:05.324Z,8.49
2023-11-04T08:50:08.918Z,8.55
2023-11-04T08:51:10.794Z,8.58
2023-11-04T08:52:13.759Z,8.61
2023-11-04T08:53:16.969Z,8.62
2023-11-04T08:54:33.151Z,8.64
2023-11-04T08:55:35.079Z,8.68
2023-11-04T08:56:37.998Z,8.71
2023-11-04T08:57:39.847Z,8.69
2023-11-04T08:58:44.053Z,8.69
2023-11-04T08:59:47.560Z,8.67
2023-11-04T09:00:51.947Z,8.62
2023-11-04T09:01:53.978Z,8.60
2023-11-04T09:02:57.048Z,8.56
2023-11-04T09:04:03.663Z,8.53
2023-11-04T09:05:13.211Z,8.52
2023-11-04T09:06:17.261Z,8.52
2023-11-04T09:07:20.162Z,8.52
2023-11-04T09:08:23.681Z,8.55
2023-11-04T09:09:26.770Z,8.56
2023-11-04T09:10:28.746Z,8.61
2023-11-04T09:11:31.588Z,8.63
2023-11-04T09:12:33.969Z,8.69
2023-11-04T09:13:38.262Z,8.74
2023-11-04T09:14:40.179Z,8.77
2023-11-04T09:15:43.038Z,8.81
2023-11-04T09:16:45.766Z,8.85
2023-11-04T09:17:48.787Z,8.88
2023-11-04T09:18:50.939Z,8.93
2023-11-04T09:19:53.849Z,8.98
2023-11-04T09:20:55.931Z,9.03
2023-11-04T09:21:58.782Z,9.07
2023-11-04T09:23:00.790Z,9.08
2023-11-04T09:24:05.634Z,9.08
2023-11-04T09:25:10.688Z,9.10
2023-11-04T09:26:13.625Z,9.13
2023-11-04T09:27:15.594Z,9.17
2023-11-04T09:28:18.427Z,9.22
2023-11-04T09:29:20.306Z,9.26
2023-11-04T09:30:23.777Z,9.32
2023-11-04T09:31:25.820Z,9.35
2023-11-04T09:32:29.217Z,9.38
2023-11-04T09:33:32.875Z,9.44
2023-11-04T09:34:36.120Z,9.50
2023-11-04T09:35:38.130Z,9.55
2023-11-04T09:36:41.869Z,9.60
2023-11-04T09:37:44.389Z,9.66
2023-11-04T09:38:48.130Z,9.70
2023-11-04T09:39:52.485Z,9.76
2023-11-04T09:40:56.148Z,9.82
2023-11-04T09:41:58.111Z,9.86
2023-11-04T09:43:01.326Z,9.92
2023-11-04T09:44:04.376Z,9.97
2023-11-04T09:45:09.010Z,10.02
2023-11-04T09:46:11.773Z,10.04
2023-11-04T09:47:15.495Z,10.04
2023-11-04T09:48:18.475Z,10.02
2023-11-04T09:49:21.450Z,10.03
2023-11-04T09:50:23.381Z,10.02
2023-11-04T09:51:25.825Z,10.04
2023-11-04T09:52:29.445Z,10.08
2023-11-04T09:53:34.469Z,10.13
2023-11-04T09:54:40.016Z,10.17
2023-11-04T09:55:43.526Z,10.18
2023-11-04T09:56:46.419Z,10.19
2023-11-04T09:57:48.471Z,10.19
2023-11-04T09:58:50.769Z,10.20
2023-11-04T10:00:06.258Z,10.22
2023-11-04T10:01:14.298Z,10.25
2023-11-04T10:02:17.105Z,10.28
2023-11-04T10:03:19.116Z,10.32
2023-11-04T10:04:22.357Z,10.32
2023-11-04T10:05:24.357Z,10.33
2023-11-04T10:06:27.304Z,10.33
2023-11-04T10:07:29.374Z,10.32
2023-11-04T10:08:31.387Z,10.32
2023-11-04T10:09:34.323Z,10.34
2023-11-04T10:10:36.269Z,10.37
2023-11-04T10:11:40.524Z,10.39
2023-11-04T10:12:43.424Z,10.41
2023-11-04T10:13:46.312Z,10.46
2023-11-04T10:14:48.207Z,10.52
2023-11-04T10:15:51.030Z,10.57
2023-11-04T10:16:52.912Z,10.62
2023-11-04T10:17:57.433Z,10.65
2023-11-04T10:18:59.392Z,10.64
2023-11-04T10:20:02.416Z,10.62
2023-11-04T10:21:04.943Z,10.54
2023-11-04T10:22:07.817Z,10.43
2023-11-04T10:23:10.319Z,10.34
2023-11-04T10:24:12.579Z,10.28
2023-11-04T10:25:15.558Z,10.17
2023-11-04T10:26:17.892Z,10.11
2023-11-04T10:27:22.033Z,10.08
2023-11-04T10:28:24.803Z,10.10
2023-11-04T10:29:27.669Z,10.13
2023-11-04T10:30:29.584Z,10.20
2023-11-04T10:31:33.328Z,10.29
2023-11-04T10:32:37.806Z,10.33
2023-11-04T10:33:42.366Z,10.37
2023-11-04T10:34:47.059Z,10.39
2023-11-04T10:35:51.001Z,10.41
2023-11-04T10:36:56.017Z,10.46
2023-11-04T10:38:18.456Z,10.53
2023-11-04T10:39:23.366Z,10.58
2023-11-04T10:40:25.523Z,10.58
2023-11-04T10:41:32.347Z,10.56
2023-11-04T10:42:40.313Z,10.49
2023-11-04T10:43:49.134Z,10.40
2023-11-04T10:44:53.396Z,10.36
2023-11-04T10:46:00.634Z,10.39
2023-11-04T10:47:07.853Z,10.46
2023-11-04T10:48:15.864Z,10.56
2023-11-04T10:49:22.031Z,10.65
2023-11-04T10:50:27.711Z,10.74
2023-11-04T10:51:34.547Z,10.81
2023-11-04T10:52:40.171Z,10.91
2023-11-04T10:53:49.987Z,10.98
2023-11-04T10:55:02.017Z,11.06
2023-11-04T10:56:08.271Z,11.10
2023-11-04T10:57:15.509Z,11.11
2023-11-04T10:58:21.633Z,11.14
2023-11-04T10:59:28.943Z,11.16
2023-11-04T11:00:33.149Z,11.18
2023-11-04T11:01:36.879Z,11.19
2023-11-04T11:02:39.984Z,11.20
2023-11-04T11:03:43.784Z,11.22
2023-11-04T11:04:47.193Z,11.23
2023-11-04T11:05:51.565Z,11.27
2023-11-04T11:06:53.898Z,11.31
2023-11-04T11:07:56.945Z,11.36
2023-11-04T11:09:01.300Z,11.39
2023-11-04T11:10:06.288Z,11.40
2023-11-04T11:11:11.880Z,11.41
2023-11-04T11:12:18.031Z,11.39
2023-11-04T11:13:23.138Z,11.42
2023-11-04T11:14:26.132Z,11.44
2023-11-04T11:15:29.096Z,11.46
2023-11-04T11:16:32.506Z,11.49
2023-11-04T11:17:34.394Z,11.49
2023-11-04T11:18:37.507Z,11.51
2023-11-04T11:19:52.666Z,11.50
2023-11-04T11:20:55.910Z,11.47
2023-11-04T11:21:57.827Z,11.46
2023-11-04T11:23:04.328Z,11.43
2023-11-04T11:24:09.970Z,11.43
2023-11-04T11:25:12.836Z,11.43
2023-11-04T11:26:15.890Z,11.46
2023-11-04T11:27:18.711Z,11.45
2023-11-04T11:28:24.330Z,11.46
2023-11-04T11:29:33.960Z,11.47
2023-11-04T11:30:38.302Z,11.46
2023-11-04T11:31:41.148Z,11.46
2023-11-04T11:32:43.262Z,11.44
2023-11-04T11:33:45.362Z,11.40
2023-11-04T11:34:51.954Z,11.38
2023-11-04T11:35:56.068Z,11.35
2023-11-04T11:37:01.695Z,11.24
2023-11-04T11:38:06.620Z,11.14
2023-11-04T11:39:09.989Z,11.04
2023-11-04T11:40:14.371Z,10.99
2023-11-04T11:41:18.551Z,10.97
2023-11-04T11:42:26.433Z,11.02
2023-11-04T11:43:31.065Z,11.07
2023-11-04T11:44:32.988Z,11.13
2023-11-04T11:45:36.510Z,11.17
2023-11-04T11:46:38.526Z,11.16
2023-11-04T11:47:41.454Z,11.12
2023-11-04T11:48:46.242Z,11.08
2023-11-04T11:49:49.861Z,11.00
2023-11-04T11:50:52.088Z,10.91
2023-11-04T11:51:54.928Z,10.81
2023-11-04T11:52:58.065Z,10.73
2023-11-04T11:54:13.917Z,10.68
2023-11-04T11:55:15.901Z,10.67
2023-11-04T11:56:19.203Z,10.71
2023-11-04T11:57:22.112Z,10.81
2023-11-04T11:58:32.685Z,10.96
2023-11-04T11:59:35.141Z,11.09
2023-11-04T12:00:38.915Z,11.23
2023-11-04T12:01:40.876Z,11.39
2023-11-04T12:02:43.696Z,11.53
2023-11-04T12:03:45.967Z,11.66
2023-11-04T12:04:48.870Z,11.78
2023-11-04T12:05:50.805Z,11.92
2023-11-04T12:06:54.438Z,12.04
2023-11-04T12:07:56.517Z,12.11
2023-11-04T12:08:59.722Z,12.17
2023-11-04T12:10:01.598Z,12.25
2023-11-04T12:11:04.704Z,12.31
2023-11-04T12:12:17.251Z,12.30
2023-11-04T12:13:20.753Z,12.29
2023-11-04T12:14:25.248Z,12.33
2023-11-04T12:15:28.339Z,12.39
2023-11-04T12:16:30.187Z,12.43
2023-11-04T12:17:33.160Z,12.47
2023-11-04T12:18:35.244Z,12.54
2023-11-04T12:19:38.519Z,12.60
2023-11-04T12:20:42.545Z,12.67
2023-11-04T12:21:45.427Z,12.70
2023-11-04T12:22:47.370Z,12.70
2023-11-04T12:23:51.384Z,12.68
2023-11-04T12:24:53.371Z,12.60
2023-11-04T12:25:57.377Z,12.52
2023-11-04T12:27:00.710Z,12.42
2023-11-04T12:28:02.803Z,12.28
2023-11-04T12:29:06.678Z,12.17
2023-11-04T12:30:10.784Z,12.10
2023-11-04T12:31:14.094Z,12.10
2023-11-04T12:32:21.630Z,12.13
2023-11-04T12:33:23.878Z,12.19
2023-11-04T12:34:25.821Z,12.26
2023-11-04T12:35:30.267Z,12.38
2023-11-04T12:36:32.789Z,12.43
2023-11-04T12:37:35.585Z,12.51
2023-11-04T12:38:37.765Z,12.62
2023-11-04T12:39:41.285Z,12.70
2023-11-04T12:40:43.529Z,12.77
2023-11-04T12:41:46.825Z,12.83
2023-11-04T12:42:49.745Z,12.89
2023-11-04T12:43:53.567Z,12.95
2023-11-04T12:44:55.893Z,12.94
2023-11-04T12:46:00.609Z,12.93
2023-11-04T12:47:03.426Z,12.91
2023-11-04T12:48:05.442Z,12.92
2023-11-04T12:49:09.029Z,12.93
2023-11-04T12:50:13.008Z,12.97
2023-11-04T12:51:15.959Z,13.00
2023-11-04T12:52:17.839Z,13.02
2023-11-04T12:53:20.085Z,13.01
2023-11-04T12:54:22.919Z,12.99
2023-11-04T12:55:25.451Z,12.92
2023-11-04T12:56:28.254Z,12.84
2023-11-04T12:57:30.121Z,12.74
2023-11-04T12:58:33.628Z,12.64
2023-11-04T12:59:35.452Z,12.49
2023-11-04T13:02:25.806Z,12.25
2023-11-04T13:03:28.522Z,12.16
2023-11-04T13:04:31.612Z,12.10
2023-11-04T13:05:33.720Z,12.08
2023-11-04T13:06:36.821Z,12.08
2023-11-04T13:07:38.879Z,12.09
2023-11-04T13:08:41.775Z,12.09
2023-11-04T13:09:43.650Z,12.06
2023-11-04T13:10:46.504Z,12.02
2023-11-04T13:11:48.442Z,11.99
2023-11-04T13:12:51.299Z,11.96
2023-11-04T13:13:54.213Z,11.93
2023-11-04T13:14:57.181Z,11.88
2023-11-04T13:15:59.089Z,11.84
2023-11-04T13:17:03.044Z,11.80
2023-11-04T13:18:19.508Z,11.76
2023-11-04T13:19:22.106Z,11.73
2023-11-04T13:20:24.950Z,11.68
2023-11-04T13:21:28.884Z,11.64
2023-11-04T13:22:31.688Z,11.60
2023-11-04T13:23:34.421Z,11.59
2023-11-04T13:24:37.305Z,11.54
2023-11-04T13:25:39.147Z,11.53
2023-11-04T13:26:42.322Z,11.51
2023-11-04T13:27:44.193Z,11.53
2023-11-04T13:28:47.012Z,11.56
2023-11-04T13:29:49.295Z,11.54
2023-11-04T13:30:52.709Z,11.58
2023-11-04T13:31:54.586Z,11.57
2023-11-04T13:32:57.429Z,11.57
2023-11-04T13:34:00.911Z,11.59
2023-11-04T13:35:04.058Z,11.60
2023-11-04T13:36:06.955Z,11.59
2023-11-04T13:37:09.851Z,11.56
2023-11-04T13:38:11.667Z,11.54
2023-11-04T13:39:14.533Z,11.54
2023-11-04T13:40:16.649Z,11.55
2023-11-04T13:41:19.747Z,11.52
2023-11-04T13:42:21.738Z,11.53
2023-11-04T13:43:24.763Z,11.51
2023-11-04T13:44:26.567Z,11.52
2023-11-04T13:45:29.410Z,11.49
2023-11-04T13:46:31.270Z,11.46
2023-11-04T13:47:37.347Z,11.44
2023-11-04T13:48:39.371Z,11.39
2023-11-04T13:49:43.640Z,11.35
2023-11-04T13:50:45.488Z,11.31
2023-11-04T13:51:48.352Z,11.24
2023-11-04T13:52:50.371Z,11.18
2023-11-04T13:54:06.949Z,11.13
2023-11-04T13:55:10.224Z,11.05
2023-11-04T13:56:13.187Z,11.00